Time;durP1;ratioP1;P1;durP2;ratioP2;P2;SDS_P1;SDS_P2;PMS_P1;PMS_P2;Temp;Humidity;BMP_temperature;BMP_pressure;BME280_temperature;BME280_humidity;BME280_pressure;Samples;Min_cycle;Max_cycle;Signal;HPM_P1;HPM_P2
2023/07/25 00:00:04;;;;;;;14.80;4.20;;;;;;;;;;5112512;28;20019;-62
2023/07/25 00:02:29;;;;;;;12.65;3.85;;;;;;;;;;5106356;28;20016;-62
2023/07/25 00:04:54;;;;;;;11.90;3.67;;;;;;;;;;5103940;28;20043;-62
2023/07/25 00:07:19;;;;;;;13.07;4.43;;;;;;;;;;5109246;28;20025;-61
2023/07/25 00:09:45;;;;;;;11.40;4.20;;;;;;;;;;5108475;28;20051;-62
2023/07/25 00:12:10;;;;;;;9.43;4.10;;;;;;;;;;5106494;28;20019;-62
2023/07/25 00:14:35;;;;;;;9.80;4.40;;;;;;;;;;5116015;28;20024;-62
2023/07/25 00:17:00;;;;;;;10.07;4.47;;;;;;;;;;5113405;28;20031;-62
2023/07/25 00:19:26;;;;;;;17.80;5.00;;;;;;;;;;5114818;28;20016;-62
2023/07/25 00:21:51;;;;;;;11.43;5.13;;;;;;;;;;5115176;28;20024;-62
2023/07/25 00:24:17;;;;;;;11.48;4.80;;;;;;;;;;5115110;28;20031;-62
2023/07/25 00:26:42;;;;;;;13.33;4.60;;;;;;;;;;5115508;28;20038;-62
2023/07/25 00:29:07;;;;;;;13.10;4.53;;;;;;;;;;5113475;28;20028;-62
2023/07/25 00:31:32;;;;;;;15.53;5.07;;;;;;;;;;5111034;28;20063;-62
2023/07/25 00:33:58;;;;;;;10.40;4.97;;;;;;;;;;5114601;28;20085;-62
2023/07/25 00:36:23;;;;;;;12.80;4.90;;;;;;;;;;5112337;28;20030;-62
2023/07/25 00:38:48;;;;;;;13.67;5.10;;;;;;;;;;5115727;28;20098;-62
2023/07/25 00:41:13;;;;;;;10.47;5.20;;;;;;;;;;5105941;28;20439;-62
2023/07/25 00:43:39;;;;;;;16.43;5.40;;;;;;;;;;5115249;28;20438;-62
2023/07/25 00:46:04;;;;;;;14.23;5.70;;;;;;;;;;5113800;28;20089;-62
2023/07/25 00:48:30;;;;;;;14.97;5.70;;;;;;;;;;5114282;28;20385;-62
2023/07/25 00:50:55;;;;;;;12.40;5.50;;;;;;;;;;5114295;28;20015;-62
2023/07/25 00:53:20;;;;;;;15.13;5.47;;;;;;;;;;5115346;28;20069;-62
2023/07/25 00:55:48;;;;;;;14.27;5.37;;;;;;;;;;5113506;28;20024;-62
2023/07/25 00:58:13;;;;;;;16.00;5.40;;;;;;;;;;5114500;28;20028;-62
2023/07/25 01:03:41;;;;;;;12.13;5.90;;;;;;;;;;5108971;28;20108;-62
2023/07/25 01:06:12;;;;;;;14.63;5.67;;;;;;;;;;5113857;28;20107;-62
2023/07/25 01:08:50;;;;;;;16.17;5.73;;;;;;;;;;5103692;28;20028;-62
2023/07/25 01:11:15;;;;;;;14.23;6.03;;;;;;;;;;5110987;28;20058;-62
2023/07/25 01:13:40;;;;;;;14.97;6.40;;;;;;;;;;5115275;28;20475;-62
2023/07/25 01:16:06;;;;;;;11.00;5.97;;;;;;;;;;5114254;28;20098;-62
2023/07/25 01:18:31;;;;;;;15.07;6.03;;;;;;;;;;5114206;28;20141;-62
2023/07/25 01:20:56;;;;;;;12.40;5.90;;;;;;;;;;5113064;28;20382;-62
2023/07/25 01:23:22;;;;;;;14.73;5.60;;;;;;;;;;5113288;28;20048;-62
2023/07/25 01:25:47;;;;;;;13.27;5.87;;;;;;;;;;5113387;28;20020;-62
2023/07/25 01:28:12;;;;;;;13.70;5.70;;;;;;;;;;5114427;28;20024;-62
2023/07/25 01:30:38;;;;;;;19.27;5.90;;;;;;;;;;5114112;28;20028;-62
2023/07/25 01:33:03;;;;;;;15.83;5.90;;;;;;;;;;5113966;28;20015;-63
2023/07/25 01:35:28;;;;;;;15.10;6.20;;;;;;;;;;5113535;28;20024;-62
2023/07/25 01:37:53;;;;;;;14.67;5.83;;;;;;;;;;5112381;28;20379;-63
2023/07/25 01:40:19;;;;;;;16.17;6.00;;;;;;;;;;5113780;28;20475;-63
2023/07/25 01:42:44;;;;;;;13.10;6.17;;;;;;;;;;5114550;28;20367;-62
2023/07/25 01:45:09;;;;;;;12.60;6.20;;;;;;;;;;5112846;28;20428;-62
2023/07/25 01:47:34;;;;;;;14.27;6.70;;;;;;;;;;5113537;28;20369;-62
2023/07/25 01:50:00;;;;;;;13.97;6.07;;;;;;;;;;5112764;28;20019;-63
2023/07/25 01:52:25;;;;;;;19.27;6.80;;;;;;;;;;5112796;28;20046;-62
2023/07/25 01:54:51;;;;;;;15.83;6.57;;;;;;;;;;5113411;28;20353;-62
2023/07/25 01:57:17;;;;;;;18.03;7.13;;;;;;;;;;5111890;28;20027;-62
2023/07/25 01:59:42;;;;;;;12.87;6.00;;;;;;;;;;5108121;28;20019;-62
2023/07/25 02:02:07;;;;;;;11.67;6.90;;;;;;;;;;5113072;28;20031;-62
2023/07/25 02:04:32;;;;;;;19.00;6.80;;;;;;;;;;5103213;28;20082;-62
2023/07/25 02:06:58;;;;;;;14.87;6.93;;;;;;;;;;5113705;28;20479;-62
2023/07/25 02:09:23;;;;;;;14.20;6.87;;;;;;;;;;5113098;28;20023;-63
2023/07/25 02:11:48;;;;;;;18.20;6.80;;;;;;;;;;5111985;28;20024;-67
2023/07/25 02:14:13;;;;;;;15.90;6.50;;;;;;;;;;5112014;28;20023;-67
2023/07/25 02:16:40;;;;;;;13.27;6.63;;;;;;;;;;5108779;28;20058;-67
2023/07/25 02:19:05;;;;;;;15.23;7.00;;;;;;;;;;5113196;28;20460;-67
2023/07/25 02:21:30;;;;;;;20.57;6.70;;;;;;;;;;5111768;28;20022;-67
2023/07/25 02:23:55;;;;;;;19.53;7.33;;;;;;;;;;5111774;28;20035;-67
2023/07/25 02:26:21;;;;;;;16.93;7.67;;;;;;;;;;5113340;28;20095;-67
2023/07/25 02:28:46;;;;;;;17.13;7.97;;;;;;;;;;5111803;28;20039;-67
2023/07/25 02:31:11;;;;;;;20.50;8.27;;;;;;;;;;5112403;28;20091;-67
2023/07/25 02:33:38;;;;;;;18.70;8.20;;;;;;;;;;5112684;28;20027;-67
2023/07/25 02:36:03;;;;;;;21.10;7.53;;;;;;;;;;5112490;28;20020;-67
2023/07/25 02:38:28;;;;;;;22.03;7.93;;;;;;;;;;5112640;28;20015;-68
2023/07/25 02:40:53;;;;;;;19.83;7.77;;;;;;;;;;5112494;28;20018;-68
2023/07/25 02:43:22;;;;;;;19.23;8.40;;;;;;;;;;5112772;28;20016;-68
2023/07/25 02:45:47;;;;;;;19.33;8.13;;;;;;;;;;5108909;28;20028;-68
2023/07/25 02:48:12;;;;;;;19.97;8.53;;;;;;;;;;5111027;28;20091;-68
2023/07/25 02:50:37;;;;;;;26.60;9.13;;;;;;;;;;5111666;28;20030;-68
2023/07/25 02:53:03;;;;;;;39.13;9.73;;;;;;;;;;5113274;28;20014;-68
2023/07/25 02:55:29;;;;;;;25.30;9.90;;;;;;;;;;5111886;28;20024;-68
2023/07/25 02:57:54;;;;;;;21.53;9.50;;;;;;;;;;5112430;28;20020;-68
2023/07/25 03:00:19;;;;;;;29.53;9.47;;;;;;;;;;5111206;28;20432;-68
2023/07/25 03:02:44;;;;;;;26.00;10.50;;;;;;;;;;5111559;28;20502;-68
2023/07/25 03:05:10;;;;;;;26.27;9.47;;;;;;;;;;5111430;28;20119;-68
2023/07/25 03:07:35;;;;;;;22.00;9.50;;;;;;;;;;5111725;28;20043;-68
2023/07/25 03:10:00;;;;;;;29.80;10.60;;;;;;;;;;5111686;28;20152;-68
2023/07/25 03:12:26;;;;;;;29.80;10.27;;;;;;;;;;5107159;28;20431;-68
2023/07/25 03:14:51;;;;;;;29.43;9.97;;;;;;;;;;5108249;28;20379;-68
2023/07/25 03:17:16;;;;;;;22.90;10.23;;;;;;;;;;5111066;28;20042;-68
2023/07/25 03:19:41;;;;;;;26.60;10.13;;;;;;;;;;5105815;28;20023;-68
2023/07/25 03:22:07;;;;;;;29.30;11.03;;;;;;;;;;5109972;28;20028;-68
2023/07/25 03:24:32;;;;;;;32.63;10.47;;;;;;;;;;5104619;28;20027;-68
2023/07/25 03:26:57;;;;;;;24.30;10.17;;;;;;;;;;5103569;28;20084;-68
2023/07/25 03:29:23;;;;;;;27.23;9.77;;;;;;;;;;5100843;28;20019;-68
2023/07/25 03:31:48;;;;;;;24.83;10.30;;;;;;;;;;5102690;28;20429;-68
2023/07/25 03:34:13;;;;;;;25.07;10.70;;;;;;;;;;5109682;28;20461;-68
2023/07/25 03:36:38;;;;;;;32.07;11.80;;;;;;;;;;5111563;28;20431;-68
2023/07/25 03:39:04;;;;;;;30.17;10.53;;;;;;;;;;5113052;28;20028;-67
2023/07/25 03:41:29;;;;;;;39.03;12.43;;;;;;;;;;5103909;28;20498;-67
2023/07/25 03:43:54;;;;;;;31.73;11.70;;;;;;;;;;5108550;28;20520;-67
2023/07/25 03:46:19;;;;;;;31.93;12.07;;;;;;;;;;5111232;28;20016;-67
2023/07/25 03:48:45;;;;;;;34.43;11.83;;;;;;;;;;5116229;28;20031;-67
2023/07/25 03:51:10;;;;;;;33.03;12.37;;;;;;;;;;5116362;28;20027;-67
2023/07/25 03:53:35;;;;;;;41.63;13.47;;;;;;;;;;5115288;28;20031;-67
2023/07/25 03:56:00;;;;;;;37.57;12.47;;;;;;;;;;5116713;28;20024;-67
2023/07/25 03:58:25;;;;;;;37.80;12.50;;;;;;;;;;5108902;28;20028;-67
2023/07/25 04:00:51;;;;;;;36.03;11.67;;;;;;;;;;5096059;28;20012;-67
2023/07/25 04:03:16;;;;;;;30.93;11.67;;;;;;;;;;5095569;28;20030;-67
2023/07/25 04:05:41;;;;;;;26.97;11.40;;;;;;;;;;5109852;28;20015;-68
2023/07/25 04:08:06;;;;;;;30.33;12.27;;;;;;;;;;5116092;28;20029;-67
2023/07/25 04:10:32;;;;;;;26.33;11.23;;;;;;;;;;5103344;28;20105;-67
2023/07/25 04:12:57;;;;;;;38.47;12.53;;;;;;;;;;5109382;28;20077;-67
2023/07/25 04:15:22;;;;;;;30.27;12.13;;;;;;;;;;5116351;28;20035;-67
2023/07/25 04:17:47;;;;;;;30.37;11.60;;;;;;;;;;5116352;28;20026;-67
2023/07/25 04:20:12;;;;;;;29.80;11.63;;;;;;;;;;5116153;28;20537;-67
2023/07/25 04:22:38;;;;;;;26.07;11.40;;;;;;;;;;5116237;28;20490;-67
2023/07/25 04:25:03;;;;;;;23.90;10.47;;;;;;;;;;5114179;28;20382;-67
2023/07/25 04:27:30;;;;;;;27.90;11.93;;;;;;;;;;5114669;28;20032;-67
2023/07/25 04:29:56;;;;;;;24.37;10.73;;;;;;;;;;5115954;28;20028;-67
2023/07/25 04:32:21;;;;;;;17.33;8.83;;;;;;;;;;5115708;28;20019;-66
2023/07/25 04:34:46;;;;;;;19.63;8.70;;;;;;;;;;5110289;28;20031;-68
2023/07/25 04:37:11;;;;;;;20.57;7.83;;;;;;;;;;5113994;28;20024;-65
2023/07/25 04:39:37;;;;;;;18.87;7.20;;;;;;;;;;5114743;28;20114;-65
2023/07/25 04:42:02;;;;;;;13.32;5.47;;;;;;;;;;5113976;28;20059;-64
2023/07/25 04:44:27;;;;;;;13.50;5.50;;;;;;;;;;5112555;28;20027;-64
2023/07/25 04:46:52;;;;;;;9.40;4.40;;;;;;;;;;5111792;28;20046;-64
2023/07/25 04:49:17;;;;;;;10.10;4.30;;;;;;;;;;5114790;28;20031;-64
2023/07/25 04:51:43;;;;;;;13.63;4.45;;;;;;;;;;5112066;28;20023;-64
2023/07/25 04:54:08;;;;;;;11.60;4.70;;;;;;;;;;5113216;28;20045;-64
2023/07/25 04:56:33;;;;;;;11.23;4.10;;;;;;;;;;5113627;28;20058;-64
2023/07/25 04:58:58;;;;;;;8.93;4.32;;;;;;;;;;5114961;28;20031;-64
2023/07/25 05:01:24;;;;;;;9.07;4.00;;;;;;;;;;5113670;28;20413;-64
2023/07/25 05:03:49;;;;;;;11.40;4.38;;;;;;;;;;5114388;28;20563;-64
2023/07/25 05:06:14;;;;;;;10.00;3.42;;;;;;;;;;5113380;28;20023;-64
2023/07/25 05:08:39;;;;;;;8.05;3.95;;;;;;;;;;5098749;28;20027;-64
2023/07/25 05:11:05;;;;;;;11.88;3.92;;;;;;;;;;5104077;28;20033;-63
2023/07/25 05:13:30;;;;;;;11.98;3.60;;;;;;;;;;5114770;28;20062;-64
2023/07/25 05:15:55;;;;;;;12.15;3.25;;;;;;;;;;5113780;28;20475;-64
2023/07/25 05:18:21;;;;;;;8.90;3.60;;;;;;;;;;5113385;28;20030;-64
2023/07/25 05:20:46;;;;;;;7.10;2.97;;;;;;;;;;5113882;28;20027;-64
2023/07/25 05:23:11;;;;;;;9.63;3.92;;;;;;;;;;5113929;28;20034;-64
2023/07/25 05:25:37;;;;;;;7.25;3.10;;;;;;;;;;5114189;28;20080;-64
2023/07/25 05:28:03;;;;;;;11.70;3.65;;;;;;;;;;5092213;28;20028;-64
2023/07/25 05:30:28;;;;;;;10.82;3.95;;;;;;;;;;5105006;28;20039;-64
2023/07/25 05:32:53;;;;;;;10.82;3.90;;;;;;;;;;5112272;28;20036;-65
2023/07/25 05:35:18;;;;;;;7.93;4.07;;;;;;;;;;5112912;28;20098;-65
2023/07/25 05:37:43;;;;;;;10.13;4.28;;;;;;;;;;5111200;28;20059;-65
2023/07/25 05:40:09;;;;;;;10.55;4.00;;;;;;;;;;5113569;28;20059;-65
2023/07/25 05:42:34;;;;;;;8.98;3.63;;;;;;;;;;5114265;28;20027;-65
2023/07/25 05:45:00;;;;;;;10.27;4.57;;;;;;;;;;5113034;28;20023;-64
2023/07/25 05:47:25;;;;;;;10.52;3.90;;;;;;;;;;5113266;28;20027;-65
2023/07/25 05:49:51;;;;;;;10.57;3.72;;;;;;;;;;5112836;28;20020;-64
2023/07/25 05:52:16;;;;;;;13.15;4.22;;;;;;;;;;5108538;28;20023;-64
2023/07/25 05:54:42;;;;;;;7.05;3.40;;;;;;;;;;5113352;28;20027;-63
2023/07/25 05:57:07;;;;;;;9.18;3.17;;;;;;;;;;5113121;28;20080;-63
2023/07/25 05:59:32;;;;;;;8.05;3.33;;;;;;;;;;5113607;28;20051;-64
2023/07/25 06:01:58;;;;;;;8.23;3.17;;;;;;;;;;5113853;28;20031;-64
2023/07/25 06:04:23;;;;;;;9.55;3.60;;;;;;;;;;5112494;28;20055;-64
2023/07/25 06:06:48;;;;;;;10.60;4.07;;;;;;;;;;5111251;28;20080;-65
2023/07/25 06:09:13;;;;;;;8.93;3.42;;;;;;;;;;5107912;28;20035;-64
2023/07/25 06:11:39;;;;;;;8.65;3.40;;;;;;;;;;5113015;28;20023;-64
2023/07/25 06:14:04;;;;;;;13.23;3.88;;;;;;;;;;5110900;28;20050;-64
2023/07/25 06:16:29;;;;;;;13.05;4.05;;;;;;;;;;5112792;28;20027;-64
2023/07/25 06:18:54;;;;;;;7.72;3.22;;;;;;;;;;5109924;28;20031;-64
2023/07/25 06:21:20;;;;;;;8.63;3.00;;;;;;;;;;5111477;28;20103;-65
2023/07/25 06:23:45;;;;;;;7.35;3.63;;;;;;;;;;5113896;28;20298;-65
2023/07/25 06:26:10;;;;;;;8.80;3.15;;;;;;;;;;5101571;28;20024;-65
2023/07/25 06:28:35;;;;;;;9.27;3.45;;;;;;;;;;5114012;28;20034;-64
2023/07/25 06:31:02;;;;;;;10.15;3.13;;;;;;;;;;5114212;28;20055;-64
2023/07/25 06:33:27;;;;;;;11.68;3.00;;;;;;;;;;5114079;28;20031;-64
2023/07/25 06:35:53;;;;;;;12.52;3.03;;;;;;;;;;5113483;28;20019;-65
2023/07/25 06:38:18;;;;;;;12.00;3.40;;;;;;;;;;5112766;28;20383;-65
2023/07/25 06:40:43;;;;;;;10.30;3.55;;;;;;;;;;5113677;28;20391;-66
2023/07/25 06:43:08;;;;;;;12.93;3.88;;;;;;;;;;5111967;28;20635;-66
2023/07/25 06:45:34;;;;;;;10.50;3.58;;;;;;;;;;5113501;28;20034;-66
2023/07/25 06:47:59;;;;;;;11.55;3.45;;;;;;;;;;5112838;28;20024;-65
2023/07/25 06:50:24;;;;;;;8.55;3.33;;;;;;;;;;5112194;28;20023;-65
2023/07/25 06:52:49;;;;;;;9.43;3.33;;;;;;;;;;5113513;28;20074;-65
2023/07/25 06:55:18;;;;;;;7.35;3.10;;;;;;;;;;5113704;28;20024;-65
2023/07/25 06:57:44;;;;;;;12.82;3.28;;;;;;;;;;5113242;28;20106;-65
2023/07/25 07:00:10;;;;;;;9.13;3.03;;;;;;;;;;5105175;28;20146;-65
2023/07/25 07:02:35;;;;;;;10.25;2.85;;;;;;;;;;5097182;28;20023;-65
2023/07/25 07:05:00;;;;;;;8.10;3.08;;;;;;;;;;5111990;28;20047;-64
2023/07/25 07:07:26;;;;;;;8.07;2.40;;;;;;;;;;5108727;28;20019;-64
2023/07/25 07:09:51;;;;;;;9.32;2.88;;;;;;;;;;5092913;28;20089;-64
2023/07/25 07:12:16;;;;;;;5.97;2.30;;;;;;;;;;5094340;28;20026;-65
2023/07/25 07:14:42;;;;;;;7.13;2.50;;;;;;;;;;5113147;28;20054;-64
2023/07/25 07:17:07;;;;;;;7.78;2.45;;;;;;;;;;5111871;28;20110;-64
2023/07/25 07:19:32;;;;;;;10.10;2.53;;;;;;;;;;5105932;28;20016;-64
2023/07/25 07:21:57;;;;;;;6.90;2.35;;;;;;;;;;5092863;28;20028;-64
2023/07/25 07:24:22;;;;;;;5.97;2.40;;;;;;;;;;5092536;28;20070;-65
2023/07/25 07:26:48;;;;;;;10.05;2.80;;;;;;;;;;5102488;28;20050;-65
2023/07/25 07:29:13;;;;;;;10.30;2.95;;;;;;;;;;5113002;28;20046;-65
2023/07/25 07:31:38;;;;;;;9.00;2.85;;;;;;;;;;5113334;28;20084;-65
2023/07/25 07:34:11;;;;;;;7.60;2.60;;;;;;;;;;5112319;28;20019;-65
2023/07/25 07:36:36;;;;;;;7.63;2.53;;;;;;;;;;5113086;28;20363;-65
2023/07/25 07:39:01;;;;;;;7.15;2.58;;;;;;;;;;5112951;28;20030;-66
2023/07/25 07:41:26;;;;;;;7.28;2.90;;;;;;;;;;5111770;28;20023;-65
2023/07/25 07:43:52;;;;;;;7.75;2.83;;;;;;;;;;5109829;28;20028;-64
2023/07/25 07:46:17;;;;;;;6.57;2.28;;;;;;;;;;5112831;28;20037;-64
2023/07/25 07:48:43;;;;;;;8.10;2.30;;;;;;;;;;5111789;28;20052;-64
2023/07/25 07:51:08;;;;;;;7.95;2.30;;;;;;;;;;5099132;28;20039;-65
2023/07/25 07:53:33;;;;;;;11.77;2.75;;;;;;;;;;5098593;28;20024;-65
2023/07/25 07:56:03;;;;;;;9.45;2.28;;;;;;;;;;5090701;28;20016;-66
2023/07/25 07:58:28;;;;;;;8.65;2.10;;;;;;;;;;5093651;28;20094;-66
2023/07/25 08:00:53;;;;;;;8.77;2.20;;;;;;;;;;5112914;28;20401;-67
2023/07/25 08:03:18;;;;;;;6.28;2.10;;;;;;;;;;5110126;28;20472;-66
2023/07/25 08:05:44;;;;;;;7.95;1.98;;;;;;;;;;5111176;28;20502;-67
2023/07/25 08:08:09;;;;;;;7.38;1.70;;;;;;;;;;5111814;28;20379;-66
2023/07/25 08:10:35;;;;;;;4.38;1.20;;;;;;;;;;5112830;28;20015;-65
2023/07/25 08:13:00;;;;;;;5.15;1.20;;;;;;;;;;5110617;28;20032;-65
2023/07/25 08:15:25;;;;;;;5.60;1.48;;;;;;;;;;5112561;28;20023;-65
2023/07/25 08:17:50;;;;;;;7.30;1.40;;;;;;;;;;5112836;28;20119;-65
2023/07/25 08:20:16;;;;;;;4.32;1.20;;;;;;;;;;5112333;28;20383;-65
2023/07/25 08:22:41;;;;;;;6.25;1.45;;;;;;;;;;5112619;28;20012;-65
2023/07/25 08:25:06;;;;;;;5.70;1.30;;;;;;;;;;5082178;28;20032;-65
2023/07/25 08:27:32;;;;;;;5.43;1.20;;;;;;;;;;5094402;28;20024;-65
2023/07/25 08:29:57;;;;;;;8.93;1.58;;;;;;;;;;5108866;28;20023;-66
2023/07/25 08:32:24;;;;;;;3.88;1.00;;;;;;;;;;5114534;28;20015;-65
2023/07/25 08:34:49;;;;;;;3.42;0.98;;;;;;;;;;5115931;28;20450;-66
2023/07/25 08:37:15;;;;;;;5.22;0.98;;;;;;;;;;5113305;28;20055;-66
2023/07/25 08:39:40;;;;;;;3.45;0.90;;;;;;;;;;5104890;28;20020;-66
2023/07/25 08:42:06;;;;;;;5.57;0.80;;;;;;;;;;5115593;28;20009;-66
2023/07/25 08:44:32;;;;;;;5.45;1.00;;;;;;;;;;5108657;28;20511;-66
2023/07/25 08:46:58;;;;;;;5.30;1.40;;;;;;;;;;5112312;28;20107;-66
2023/07/25 08:49:24;;;;;;;5.32;1.02;;;;;;;;;;5110046;28;20464;-67
2023/07/25 08:51:53;;;;;;;5.57;1.13;;;;;;;;;;5110172;28;20023;-66
2023/07/25 08:54:34;;;;;;;3.45;0.90;;;;;;;;;;5100050;28;20031;-65
2023/07/25 08:56:59;;;;;;;;;;;;;;;;;;5108835;28;20028;-65
2023/07/25 08:59:25;;;;;;;5.70;1.10;;;;;;;;;;5109968;28;19915;-65
2023/07/25 09:01:52;;;;;;;3.67;1.00;;;;;;;;;;5103558;28;20016;-66
2023/07/25 09:04:18;;;;;;;5.15;1.60;;;;;;;;;;5109582;28;20491;-66
2023/07/25 09:06:43;;;;;;;5.45;1.08;;;;;;;;;;5112750;28;20020;-66
2023/07/25 09:09:09;;;;;;;6.30;1.02;;;;;;;;;;5101027;28;20016;-65
2023/07/25 09:11:34;;;;;;;5.72;1.13;;;;;;;;;;5108547;28;20019;-65
2023/07/25 09:14:02;;;;;;;4.97;1.13;;;;;;;;;;5102340;28;20127;-65
2023/07/25 09:16:27;;;;;;;8.82;1.67;;;;;;;;;;5110084;28;20103;-65
2023/07/25 09:18:53;;;;;;;6.63;1.33;;;;;;;;;;5111244;28;20436;-65
2023/07/25 09:21:18;;;;;;;7.93;1.10;;;;;;;;;;5102188;28;20019;-65
2023/07/25 09:23:53;;;;;;;4.22;1.10;;;;;;;;;;5115075;28;20345;-64
2023/07/25 09:26:22;;;;;;;4.80;1.20;;;;;;;;;;5099030;28;20368;-65
2023/07/25 09:28:49;;;;;;;5.80;1.15;;;;;;;;;;5111511;28;20023;-64
2023/07/25 09:31:14;;;;;;;9.40;1.85;;;;;;;;;;5101357;28;20379;-63
2023/07/25 09:33:40;;;;;;;7.20;1.30;;;;;;;;;;5108143;28;20035;-63
2023/07/25 09:36:06;;;;;;;9.88;1.60;;;;;;;;;;5113266;28;20361;-63
2023/07/25 09:38:32;;;;;;;4.75;1.30;;;;;;;;;;5113350;28;20107;-63
2023/07/25 09:40:58;;;;;;;8.80;1.85;;;;;;;;;;5113210;28;20031;-63
2023/07/25 09:43:26;;;;;;;3.70;1.10;;;;;;;;;;5112102;28;20024;-63
2023/07/25 09:45:52;;;;;;;5.45;1.30;;;;;;;;;;5113367;28;20058;-63
2023/07/25 09:48:17;;;;;;;5.40;1.10;;;;;;;;;;5114398;28;20417;-63
2023/07/25 09:50:46;;;;;;;6.05;1.35;;;;;;;;;;5113219;28;20027;-63
2023/07/25 09:53:12;;;;;;;4.95;1.23;;;;;;;;;;5114007;28;20023;-63
2023/07/25 09:55:38;;;;;;;6.57;1.55;;;;;;;;;;5114609;28;20383;-63
2023/07/25 09:58:04;;;;;;;9.65;1.33;;;;;;;;;;5100839;28;20032;-63
2023/07/25 10:00:30;;;;;;;6.28;1.20;;;;;;;;;;5102749;28;20027;-63
2023/07/25 10:02:55;;;;;;;10.20;1.65;;;;;;;;;;5114072;28;20092;-63
2023/07/25 10:05:21;;;;;;;5.47;1.30;;;;;;;;;;5112156;28;20043;-63
2023/07/25 10:07:47;;;;;;;4.05;1.05;;;;;;;;;;5111494;28;20474;-63
2023/07/25 10:10:12;;;;;;;5.28;1.15;;;;;;;;;;5105129;28;20401;-64
2023/07/25 10:12:37;;;;;;;6.80;1.20;;;;;;;;;;5113074;28;20030;-64
2023/07/25 10:15:04;;;;;;;6.43;1.27;;;;;;;;;;5110612;28;20020;-63
2023/07/25 10:17:29;;;;;;;5.38;1.10;;;;;;;;;;5110981;28;20098;-63
2023/07/25 10:19:54;;;;;;;4.93;1.00;;;;;;;;;;5112175;28;20115;-64
2023/07/25 10:22:32;;;;;;;7.35;1.20;;;;;;;;;;5098395;28;20024;-65
2023/07/25 10:24:57;;;;;;;7.55;1.20;;;;;;;;;;5108807;28;20050;-64
2023/07/25 10:27:22;;;;;;;5.25;0.90;;;;;;;;;;5113468;28;20043;-64
2023/07/25 10:29:47;;;;;;;5.22;1.30;;;;;;;;;;5114007;28;20028;-64
2023/07/25 10:32:13;;;;;;;5.72;1.30;;;;;;;;;;5113928;28;20031;-65
2023/07/25 10:34:48;;;;;;;6.85;1.48;;;;;;;;;;5111896;28;20364;-65
2023/07/25 10:37:23;;;;;;;6.18;1.33;;;;;;;;;;5107289;28;20549;-65
2023/07/25 10:40:21;;;;;;;5.22;1.30;;;;;;;;;;5109930;28;20054;-65
2023/07/25 10:42:46;;;;;;;7.40;1.50;;;;;;;;;;5008928;28;20030;-64
2023/07/25 10:45:21;;;;;;;5.97;1.00;;;;;;;;;;5012662;28;20041;-65
2023/07/25 10:47:48;;;;;;;5.78;1.10;;;;;;;;;;5011582;28;20399;-65
2023/07/25 10:50:16;;;;;;;5.10;1.23;;;;;;;;;;5011349;28;20084;-65
2023/07/25 10:52:41;;;;;;;4.97;1.30;;;;;;;;;;5014059;28;20029;-64
2023/07/25 10:55:09;;;;;;;8.18;1.05;;;;;;;;;;5009040;28;20026;-65
2023/07/25 10:57:34;;;;;;;4.93;1.10;;;;;;;;;;5017753;28;20470;-65
2023/07/25 11:00:00;;;;;;;6.60;1.50;;;;;;;;;;5017624;28;20086;-66
2023/07/25 11:02:32;;;;;;;6.82;1.15;;;;;;;;;;5010366;28;20057;-66
2023/07/25 11:05:12;;;;;;;9.30;1.73;;;;;;;;;;5010624;28;20458;-65
2023/07/25 11:07:38;;;;;;;5.78;1.20;;;;;;;;;;5010872;28;20032;-66
2023/07/25 11:10:04;;;;;;;6.20;1.25;;;;;;;;;;5010922;28;20492;-66
2023/07/25 11:12:29;;;;;;;5.68;1.38;;;;;;;;;;5010739;28;20116;-65
2023/07/25 11:14:55;;;;;;;2.90;0.90;;;;;;;;;;5009937;28;20032;-65
2023/07/25 11:17:26;;;;;;;5.88;0.90;;;;;;;;;;5014974;28;20076;-65
2023/07/25 11:19:51;;;;;;;5.78;1.08;;;;;;;;;;5086778;28;20073;-65
2023/07/25 11:22:16;;;;;;;8.25;1.20;;;;;;;;;;5080732;28;20430;-65
2023/07/25 11:24:46;;;;;;;7.22;1.20;;;;;;;;;;5090977;28;20464;-66
2023/07/25 11:27:12;;;;;;;4.82;1.00;;;;;;;;;;5072391;28;20017;-66
2023/07/25 11:29:37;;;;;;;7.30;1.10;;;;;;;;;;5072708;28;20032;-66
2023/07/25 11:32:02;;;;;;;4.32;1.00;;;;;;;;;;5072906;28;20047;-66
2023/07/25 11:34:28;;;;;;;5.10;1.08;;;;;;;;;;5073875;28;20456;-66
2023/07/25 11:36:54;;;;;;;5.82;1.00;;;;;;;;;;5089384;28;20035;-66
2023/07/25 11:39:19;;;;;;;6.82;1.30;;;;;;;;;;5092788;28;20083;-66
2023/07/25 11:41:45;;;;;;;4.05;1.00;;;;;;;;;;5090173;28;20024;-66
2023/07/25 11:44:12;;;;;;;5.55;0.90;;;;;;;;;;5085005;28;20349;-66
2023/07/25 11:46:39;;;;;;;4.93;1.05;;;;;;;;;;5090716;28;20032;-66
2023/07/25 11:49:05;;;;;;;5.85;1.00;;;;;;;;;;5090704;28;20457;-65
2023/07/25 11:51:30;;;;;;;5.22;0.90;;;;;;;;;;5089530;28;20030;-64
2023/07/25 11:53:56;;;;;;;5.03;0.80;;;;;;;;;;5091478;28;20016;-65
2023/07/25 11:56:22;;;;;;;4.18;0.95;;;;;;;;;;5088255;28;20024;-66
2023/07/25 11:58:50;;;;;;;2.50;0.60;;;;;;;;;;5090713;28;20531;-65
2023/07/25 12:01:18;;;;;;;3.45;0.77;;;;;;;;;;5090634;28;20371;-65
2023/07/25 12:03:48;;;;;;;2.50;0.60;;;;;;;;;;5091497;28;20058;-66
2023/07/25 12:06:13;;;;;;;2.25;0.80;;;;;;;;;;5111880;28;20403;-65
2023/07/25 12:08:43;;;;;;;3.10;0.70;;;;;;;;;;5114933;28;20026;-66
2023/07/25 12:11:12;;;;;;;4.50;0.90;;;;;;;;;;5114646;28;20031;-66
2023/07/25 12:13:45;;;;;;;4.43;0.90;;;;;;;;;;5115552;28;20137;-66
2023/07/25 12:16:22;;;;;;;2.95;0.80;;;;;;;;;;5115920;28;20024;-66
2023/07/25 12:18:50;;;;;;;4.22;0.80;;;;;;;;;;5108062;28;20039;-66
2023/07/25 12:21:21;;;;;;;4.40;0.70;;;;;;;;;;5109828;28;20023;-67
2023/07/25 12:23:50;;;;;;;4.95;0.77;;;;;;;;;;5113569;28;20031;-66
2023/07/25 12:26:20;;;;;;;2.95;0.70;;;;;;;;;;5110981;28;20070;-66
2023/07/25 12:28:45;;;;;;;2.10;0.60;;;;;;;;;;5095804;28;20055;-66
2023/07/25 12:31:11;;;;;;;5.25;0.70;;;;;;;;;;5106355;28;20038;-66
2023/07/25 12:33:37;;;;;;;4.53;1.00;;;;;;;;;;5116330;28;20035;-67
2023/07/25 12:36:03;;;;;;;3.47;0.70;;;;;;;;;;5115917;28;20340;-66
2023/07/25 12:38:28;;;;;;;2.85;0.50;;;;;;;;;;5115884;28;20099;-66
2023/07/25 12:40:53;;;;;;;2.42;0.90;;;;;;;;;;5096784;28;20411;-66
2023/07/25 12:43:19;;;;;;;4.68;0.70;;;;;;;;;;5105663;28;20019;-66
2023/07/25 12:45:45;;;;;;;3.35;0.60;;;;;;;;;;5115964;28;20016;-66
2023/07/25 12:48:10;;;;;;;4.05;0.45;;;;;;;;;;5115900;28;20081;-66
2023/07/25 12:50:35;;;;;;;4.20;0.70;;;;;;;;;;5111446;28;20034;-67
2023/07/25 12:53:01;;;;;;;4.22;0.60;;;;;;;;;;5115054;28;20019;-66
2023/07/25 12:55:26;;;;;;;4.43;0.80;;;;;;;;;;5113684;28;20106;-66
2023/07/25 12:57:51;;;;;;;7.97;0.90;;;;;;;;;;5113614;28;20024;-66
2023/07/25 13:00:17;;;;;;;5.00;0.77;;;;;;;;;;5105716;28;20034;-66
2023/07/25 13:02:42;;;;;;;5.15;0.75;;;;;;;;;;5095411;28;20078;-67
2023/07/25 13:05:07;;;;;;;3.83;0.70;;;;;;;;;;5114829;28;20043;-67
2023/07/25 13:07:34;;;;;;;3.88;0.80;;;;;;;;;;5115820;28;20015;-67
2023/07/25 13:10:00;;;;;;;2.30;0.60;;;;;;;;;;5115418;28;20023;-68
2023/07/25 13:12:25;;;;;;;3.47;0.68;;;;;;;;;;5112552;28;20092;-67
2023/07/25 13:14:50;;;;;;;4.18;0.70;;;;;;;;;;5111124;28;20096;-67
2023/07/25 13:17:15;;;;;;;3.50;0.60;;;;;;;;;;5113946;28;20124;-67
2023/07/25 13:19:40;;;;;;;3.15;0.73;;;;;;;;;;5113568;28;20047;-67
2023/07/25 13:22:06;;;;;;;5.75;0.73;;;;;;;;;;5112434;28;20047;-67
2023/07/25 13:24:31;;;;;;;5.57;0.75;;;;;;;;;;5112608;28;20387;-67
2023/07/25 13:26:56;;;;;;;3.50;0.75;;;;;;;;;;5111693;28;20027;-66
2023/07/25 13:29:22;;;;;;;4.43;0.70;;;;;;;;;;5111633;28;20027;-67
2023/07/25 13:31:47;;;;;;;3.83;0.70;;;;;;;;;;5104737;28;20031;-67
2023/07/25 13:34:12;;;;;;;3.40;0.68;;;;;;;;;;5109012;28;20031;-67
2023/07/25 13:36:38;;;;;;;1.63;0.50;;;;;;;;;;5112248;28;20019;-66
2023/07/25 13:39:03;;;;;;;3.92;0.73;;;;;;;;;;5112934;28;20379;-66
2023/07/25 13:41:28;;;;;;;3.90;0.80;;;;;;;;;;5115002;28;20016;-66
2023/07/25 13:43:53;;;;;;;4.25;0.98;;;;;;;;;;5114935;28;20379;-67
2023/07/25 13:46:19;;;;;;;4.25;0.90;;;;;;;;;;5109520;28;20008;-66
2023/07/25 13:48:47;;;;;;;7.63;0.93;;;;;;;;;;5097310;28;20031;-67
2023/07/25 13:51:12;;;;;;;2.38;0.70;;;;;;;;;;5107500;28;20388;-68
2023/07/25 13:53:37;;;;;;;3.63;0.80;;;;;;;;;;5114871;28;20016;-69
2023/07/25 13:56:03;;;;;;;3.17;0.75;;;;;;;;;;5113083;28;20418;-68
2023/07/25 13:58:28;;;;;;;4.82;0.80;;;;;;;;;;5101107;28;20537;-68
2023/07/25 14:00:54;;;;;;;5.30;1.10;;;;;;;;;;5093990;28;20043;-67
2023/07/25 14:03:19;;;;;;;4.68;0.80;;;;;;;;;;5093962;28;20044;-68
2023/07/25 14:05:44;;;;;;;4.57;0.75;;;;;;;;;;5108542;28;20095;-68
2023/07/25 14:08:10;;;;;;;3.75;1.00;;;;;;;;;;5097769;28;20030;-67
2023/07/25 14:10:36;;;;;;;2.60;0.63;;;;;;;;;;5111196;28;20039;-68
2023/07/25 14:13:01;;;;;;;5.80;0.80;;;;;;;;;;5112175;28;20025;-69
2023/07/25 14:15:26;;;;;;;4.60;0.70;;;;;;;;;;5112547;28;20535;-67
2023/07/25 14:17:51;;;;;;;3.70;0.70;;;;;;;;;;5111800;28;20023;-68
2023/07/25 14:20:17;;;;;;;4.45;0.88;;;;;;;;;;5102841;28;20028;-69
2023/07/25 14:22:42;;;;;;;3.53;0.70;;;;;;;;;;5110872;28;20489;-68
2023/07/25 14:25:07;;;;;;;2.50;0.70;;;;;;;;;;5110481;28;20413;-69
2023/07/25 14:27:33;;;;;;;4.78;0.75;;;;;;;;;;5112054;28;20379;-69
2023/07/25 14:29:58;;;;;;;3.40;0.70;;;;;;;;;;5108953;28;20063;-68